sensor_id;sensor_type;location;lat;lon;timestamp;P1;durP1;ratioP1;P2;durP2;ratioP2
47239;SDS011;32978;53.586;10.052;2022-11-20T00:01:20;13.65;;;12.75;;
47239;SDS011;32978;53.586;10.052;2022-11-20T00:06:17;15.52;;;14.18;;
47239;SDS011;32978;53.586;10.052;2022-11-20T00:11:18;14.85;;;13.75;;
47239;SDS011;32978;53.586;10.052;2022-11-20T00:16:16;15.30;;;14.10;;
47239;SDS011;32978;53.586;10.052;2022-11-20T00:21:14;14.93;;;13.82;;
47239;SDS011;32978;53.586;10.052;2022-11-20T00:26:14;15.32;;;14.18;;
47239;SDS011;32978;53.586;10.052;2022-11-20T00:31:12;16.13;;;14.63;;
47239;SDS011;32978;53.586;10.052;2022-11-20T00:36:09;15.80;;;14.77;;
47239;SDS011;32978;53.586;10.052;2022-11-20T00:41:07;17.10;;;15.93;;
47239;SDS011;32978;53.586;10.052;2022-11-20T00:46:08;18.70;;;17.33;;
47239;SDS011;32978;53.586;10.052;2022-11-20T00:51:05;18.00;;;16.50;;
47239;SDS011;32978;53.586;10.052;2022-11-20T00:56:02;18.13;;;16.92;;
47239;SDS011;32978;53.586;10.052;2022-11-20T01:01:03;20.33;;;18.73;;
47239;SDS011;32978;53.586;10.052;2022-11-20T01:06:00;18.10;;;16.83;;
47239;SDS011;32978;53.586;10.052;2022-11-20T01:11:01;18.13;;;16.52;;
47239;SDS011;32978;53.586;10.052;2022-11-20T01:21:06;20.55;;;19.00;;
47239;SDS011;32978;53.586;10.052;2022-11-20T01:26:03;23.20;;;21.65;;
47239;SDS011;32978;53.586;10.052;2022-11-20T01:31:00;24.70;;;23.10;;
47239;SDS011;32978;53.586;10.052;2022-11-20T01:36:02;25.00;;;23.30;;
47239;SDS011;32978;53.586;10.052;2022-11-20T01:40:59;28.05;;;26.33;;
47239;SDS011;32978;53.586;10.052;2022-11-20T01:45:56;30.58;;;28.67;;
47239;SDS011;32978;53.586;10.052;2022-11-20T01:50:54;27.90;;;26.20;;
47239;SDS011;32978;53.586;10.052;2022-11-20T01:55:54;31.85;;;29.23;;
47239;SDS011;32978;53.586;10.052;2022-11-20T02:00:50;33.92;;;32.03;;
47239;SDS011;32978;53.586;10.052;2022-11-20T02:05:51;34.72;;;32.78;;
47239;SDS011;32978;53.586;10.052;2022-11-20T02:10:49;36.20;;;33.97;;
47239;SDS011;32978;53.586;10.052;2022-11-20T02:15:46;35.83;;;33.63;;
47239;SDS011;32978;53.586;10.052;2022-11-20T02:20:43;35.65;;;33.42;;
47239;SDS011;32978;53.586;10.052;2022-11-20T02:25:39;35.03;;;32.85;;
47239;SDS011;32978;53.586;10.052;2022-11-20T02:30:37;36.25;;;34.13;;
47239;SDS011;32978;53.586;10.052;2022-11-20T02:40:29;34.80;;;32.60;;
47239;SDS011;32978;53.586;10.052;2022-11-20T02:45:25;32.58;;;30.58;;
47239;SDS011;32978;53.586;10.052;2022-11-20T02:50:22;38.45;;;36.20;;
47239;SDS011;32978;53.586;10.052;2022-11-20T02:55:18;36.60;;;34.55;;
47239;SDS011;32978;53.586;10.052;2022-11-20T03:00:14;39.83;;;37.67;;
47239;SDS011;32978;53.586;10.052;2022-11-20T03:05:10;39.08;;;36.88;;
47239;SDS011;32978;53.586;10.052;2022-11-20T03:10:07;37.72;;;35.20;;
47239;SDS011;32978;53.586;10.052;2022-11-20T03:15:03;39.95;;;37.17;;
47239;SDS011;32978;53.586;10.052;2022-11-20T03:20:00;39.72;;;37.53;;
47239;SDS011;32978;53.586;10.052;2022-11-20T03:24:56;36.83;;;34.72;;
47239;SDS011;32978;53.586;10.052;2022-11-20T03:29:52;37.83;;;35.70;;
47239;SDS011;32978;53.586;10.052;2022-11-20T03:34:49;37.17;;;34.88;;
47239;SDS011;32978;53.586;10.052;2022-11-20T03:39:45;34.95;;;32.70;;
47239;SDS011;32978;53.586;10.052;2022-11-20T03:44:41;34.72;;;32.25;;
47239;SDS011;32978;53.586;10.052;2022-11-20T03:49:37;38.17;;;35.75;;
47239;SDS011;32978;53.586;10.052;2022-11-20T03:54:33;32.95;;;30.98;;
47239;SDS011;32978;53.586;10.052;2022-11-20T03:59:30;32.45;;;30.45;;
47239;SDS011;32978;53.586;10.052;2022-11-20T04:04:26;33.08;;;31.25;;
47239;SDS011;32978;53.586;10.052;2022-11-20T04:09:22;30.40;;;28.60;;
47239;SDS011;32978;53.586;10.052;2022-11-20T04:14:19;33.08;;;31.15;;
47239;SDS011;32978;53.586;10.052;2022-11-20T04:19:18;34.95;;;32.95;;
47239;SDS011;32978;53.586;10.052;2022-11-20T04:24:14;34.90;;;32.80;;
47239;SDS011;32978;53.586;10.052;2022-11-20T04:29:11;34.80;;;32.65;;
47239;SDS011;32978;53.586;10.052;2022-11-20T04:34:07;36.83;;;34.53;;
47239;SDS011;32978;53.586;10.052;2022-11-20T04:39:04;38.78;;;36.47;;
47239;SDS011;32978;53.586;10.052;2022-11-20T04:44:01;35.67;;;33.58;;
47239;SDS011;32978;53.586;10.052;2022-11-20T04:49:01;34.50;;;32.35;;
47239;SDS011;32978;53.586;10.052;2022-11-20T04:53:57;38.28;;;35.97;;
47239;SDS011;32978;53.586;10.052;2022-11-20T04:58:53;42.50;;;40.10;;
47239;SDS011;32978;53.586;10.052;2022-11-20T05:03:49;41.17;;;38.30;;
47239;SDS011;32978;53.586;10.052;2022-11-20T05:08:46;40.58;;;38.28;;
47239;SDS011;32978;53.586;10.052;2022-11-20T05:13:42;38.20;;;35.35;;
47239;SDS011;32978;53.586;10.052;2022-11-20T05:18:39;40.53;;;38.13;;
47239;SDS011;32978;53.586;10.052;2022-11-20T05:23:35;41.00;;;37.95;;
47239;SDS011;32978;53.586;10.052;2022-11-20T05:28:32;39.65;;;37.45;;
47239;SDS011;32978;53.586;10.052;2022-11-20T05:33:28;40.83;;;38.42;;
47239;SDS011;32978;53.586;10.052;2022-11-20T05:38:24;43.50;;;40.88;;
47239;SDS011;32978;53.586;10.052;2022-11-20T05:43:20;42.17;;;39.78;;
47239;SDS011;32978;53.586;10.052;2022-11-20T05:48:17;41.83;;;39.22;;
47239;SDS011;32978;53.586;10.052;2022-11-20T05:53:13;40.28;;;37.17;;
47239;SDS011;32978;53.586;10.052;2022-11-20T05:58:09;42.97;;;40.42;;
47239;SDS011;32978;53.586;10.052;2022-11-20T06:03:05;44.78;;;41.88;;
47239;SDS011;32978;53.586;10.052;2022-11-20T06:08:02;41.35;;;38.88;;
47239;SDS011;32978;53.586;10.052;2022-11-20T06:12:58;46.67;;;44.08;;
47239;SDS011;32978;53.586;10.052;2022-11-20T06:17:54;42.83;;;40.30;;
47239;SDS011;32978;53.586;10.052;2022-11-20T06:22:51;43.00;;;40.13;;
47239;SDS011;32978;53.586;10.052;2022-11-20T06:27:47;46.50;;;43.72;;
47239;SDS011;32978;53.586;10.052;2022-11-20T06:32:43;41.20;;;38.30;;
47239;SDS011;32978;53.586;10.052;2022-11-20T06:37:40;46.00;;;43.00;;
47239;SDS011;32978;53.586;10.052;2022-11-20T06:42:36;46.60;;;43.58;;
47239;SDS011;32978;53.586;10.052;2022-11-20T06:47:32;50.63;;;47.42;;
47239;SDS011;32978;53.586;10.052;2022-11-20T06:52:29;48.10;;;44.97;;
47239;SDS011;32978;53.586;10.052;2022-11-20T06:57:25;47.30;;;44.33;;
47239;SDS011;32978;53.586;10.052;2022-11-20T07:02:21;50.97;;;47.85;;
47239;SDS011;32978;53.586;10.052;2022-11-20T07:07:17;52.55;;;49.42;;
47239;SDS011;32978;53.586;10.052;2022-11-20T07:12:14;52.10;;;49.08;;
47239;SDS011;32978;53.586;10.052;2022-11-20T07:17:11;51.78;;;48.67;;
47239;SDS011;32978;53.586;10.052;2022-11-20T07:22:07;48.97;;;46.17;;
47239;SDS011;32978;53.586;10.052;2022-11-20T07:27:04;45.47;;;42.78;;
47239;SDS011;32978;53.586;10.052;2022-11-20T07:32:00;45.40;;;42.80;;
47239;SDS011;32978;53.586;10.052;2022-11-20T07:36:56;46.05;;;43.15;;
47239;SDS011;32978;53.586;10.052;2022-11-20T07:41:52;46.08;;;43.40;;
47239;SDS011;32978;53.586;10.052;2022-11-20T07:46:48;41.63;;;39.05;;
47239;SDS011;32978;53.586;10.052;2022-11-20T07:51:45;44.00;;;41.38;;
47239;SDS011;32978;53.586;10.052;2022-11-20T07:56:46;44.20;;;41.67;;
47239;SDS011;32978;53.586;10.052;2022-11-20T08:01:43;44.38;;;41.75;;
47239;SDS011;32978;53.586;10.052;2022-11-20T08:06:39;43.88;;;41.25;;
47239;SDS011;32978;53.586;10.052;2022-11-20T08:11:35;43.13;;;40.63;;
47239;SDS011;32978;53.586;10.052;2022-11-20T08:16:50;39.47;;;37.15;;
47239;SDS011;32978;53.586;10.052;2022-11-20T08:21:46;36.58;;;34.25;;
47239;SDS011;32978;53.586;10.052;2022-11-20T08:26:43;35.35;;;32.80;;
47239;SDS011;32978;53.586;10.052;2022-11-20T08:31:39;30.65;;;28.77;;
47239;SDS011;32978;53.586;10.052;2022-11-20T08:36:35;31.02;;;29.15;;
47239;SDS011;32978;53.586;10.052;2022-11-20T08:41:31;30.65;;;28.75;;
47239;SDS011;32978;53.586;10.052;2022-11-20T08:46:36;28.35;;;26.65;;
47239;SDS011;32978;53.586;10.052;2022-11-20T08:51:33;28.20;;;26.40;;
47239;SDS011;32978;53.586;10.052;2022-11-20T08:56:29;30.38;;;28.48;;
47239;SDS011;32978;53.586;10.052;2022-11-20T09:01:26;29.67;;;27.88;;
47239;SDS011;32978;53.586;10.052;2022-11-20T09:06:22;29.30;;;27.52;;
47239;SDS011;32978;53.586;10.052;2022-11-20T09:11:19;24.67;;;23.15;;
47239;SDS011;32978;53.586;10.052;2022-11-20T09:16:15;28.00;;;26.10;;
47239;SDS011;32978;53.586;10.052;2022-11-20T09:21:12;31.40;;;29.60;;
47239;SDS011;32978;53.586;10.052;2022-11-20T09:26:11;36.05;;;33.95;;
47239;SDS011;32978;53.586;10.052;2022-11-20T09:31:08;47.80;;;44.90;;
47239;SDS011;32978;53.586;10.052;2022-11-20T09:36:04;52.45;;;49.30;;
47239;SDS011;32978;53.586;10.052;2022-11-20T09:41:02;56.67;;;53.60;;
47239;SDS011;32978;53.586;10.052;2022-11-20T09:46:02;62.22;;;58.92;;
47239;SDS011;32978;53.586;10.052;2022-11-20T09:51:35;67.05;;;63.45;;
47239;SDS011;32978;53.586;10.052;2022-11-20T09:56:23;61.43;;;58.00;;
47239;SDS011;32978;53.586;10.052;2022-11-20T10:01:26;57.92;;;54.72;;
47239;SDS011;32978;53.586;10.052;2022-11-20T10:06:29;51.95;;;49.13;;
47239;SDS011;32978;53.586;10.052;2022-11-20T10:11:30;52.03;;;49.13;;
47239;SDS011;32978;53.586;10.052;2022-11-20T10:31:36;38.72;;;36.28;;
47239;SDS011;32978;53.586;10.052;2022-11-20T10:36:34;39.88;;;37.45;;
47239;SDS011;32978;53.586;10.052;2022-11-20T10:41:34;35.17;;;33.17;;
47239;SDS011;32978;53.586;10.052;2022-11-20T10:47:08;29.73;;;28.02;;
47239;SDS011;32978;53.586;10.052;2022-11-20T10:56:56;30.15;;;28.35;;
47239;SDS011;32978;53.586;10.052;2022-11-20T11:01:56;22.48;;;21.08;;
47239;SDS011;32978;53.586;10.052;2022-11-20T11:06:52;22.00;;;20.58;;
47239;SDS011;32978;53.586;10.052;2022-11-20T11:11:51;23.20;;;21.80;;
47239;SDS011;32978;53.586;10.052;2022-11-20T11:16:51;22.98;;;21.48;;
47239;SDS011;32978;53.586;10.052;2022-11-20T11:21:48;21.75;;;20.35;;
47239;SDS011;32978;53.586;10.052;2022-11-20T11:26:57;21.05;;;19.75;;
47239;SDS011;32978;53.586;10.052;2022-11-20T11:32:17;21.23;;;19.83;;
47239;SDS011;32978;53.586;10.052;2022-11-20T11:37:18;19.27;;;17.92;;
47239;SDS011;32978;53.586;10.052;2022-11-20T11:42:17;19.60;;;18.30;;
47239;SDS011;32978;53.586;10.052;2022-11-20T11:47:24;18.90;;;17.60;;
47239;SDS011;32978;53.586;10.052;2022-11-20T11:52:21;17.48;;;16.27;;
47239;SDS011;32978;53.586;10.052;2022-11-20T12:02:38;18.05;;;16.95;;
47239;SDS011;32978;53.586;10.052;2022-11-20T12:07:44;16.48;;;15.38;;
47239;SDS011;32978;53.586;10.052;2022-11-20T12:12:44;16.98;;;15.88;;
47239;SDS011;32978;53.586;10.052;2022-11-20T12:17:41;17.10;;;15.80;;
47239;SDS011;32978;53.586;10.052;2022-11-20T12:22:45;16.02;;;14.93;;
47239;SDS011;32978;53.586;10.052;2022-11-20T12:43:21;15.32;;;14.10;;
47239;SDS011;32978;53.586;10.052;2022-11-20T12:53:55;13.98;;;12.90;;
47239;SDS011;32978;53.586;10.052;2022-11-20T12:58:59;14.18;;;13.18;;
47239;SDS011;32978;53.586;10.052;2022-11-20T13:03:58;13.30;;;12.40;;
47239;SDS011;32978;53.586;10.052;2022-11-20T13:09:06;14.23;;;13.25;;
47239;SDS011;32978;53.586;10.052;2022-11-20T13:14:10;13.57;;;12.65;;
47239;SDS011;32978;53.586;10.052;2022-11-20T13:19:09;14.48;;;13.48;;
47239;SDS011;32978;53.586;10.052;2022-11-20T13:24:07;13.40;;;12.40;;
47239;SDS011;32978;53.586;10.052;2022-11-20T13:29:16;12.75;;;11.95;;
47239;SDS011;32978;53.586;10.052;2022-11-20T13:34:22;13.25;;;12.13;;
47239;SDS011;32978;53.586;10.052;2022-11-20T13:39:23;11.35;;;10.45;;
47239;SDS011;32978;53.586;10.052;2022-11-20T13:44:25;12.95;;;11.85;;
47239;SDS011;32978;53.586;10.052;2022-11-20T13:59:27;14.15;;;13.05;;
47239;SDS011;32978;53.586;10.052;2022-11-20T14:04:33;13.45;;;12.45;;
47239;SDS011;32978;53.586;10.052;2022-11-20T14:09:30;13.77;;;12.88;;
47239;SDS011;32978;53.586;10.052;2022-11-20T14:14:28;13.57;;;12.68;;
47239;SDS011;32978;53.586;10.052;2022-11-20T14:19:26;13.98;;;12.90;;
47239;SDS011;32978;53.586;10.052;2022-11-20T14:24:24;14.15;;;13.25;;
47239;SDS011;32978;53.586;10.052;2022-11-20T14:29:23;15.05;;;14.05;;
47239;SDS011;32978;53.586;10.052;2022-11-20T14:34:24;14.50;;;13.57;;
47239;SDS011;32978;53.586;10.052;2022-11-20T14:39:21;14.80;;;13.68;;
47239;SDS011;32978;53.586;10.052;2022-11-20T14:44:18;15.60;;;14.40;;
47239;SDS011;32978;53.586;10.052;2022-11-20T14:49:16;17.02;;;15.45;;
47239;SDS011;32978;53.586;10.052;2022-11-20T14:54:16;15.40;;;14.23;;
47239;SDS011;32978;53.586;10.052;2022-11-20T14:59:22;15.00;;;14.00;;
47239;SDS011;32978;53.586;10.052;2022-11-20T15:04:18;14.32;;;13.23;;
47239;SDS011;32978;53.586;10.052;2022-11-20T15:09:14;15.38;;;14.38;;
47239;SDS011;32978;53.586;10.052;2022-11-20T15:14:11;15.82;;;14.57;;
47239;SDS011;32978;53.586;10.052;2022-11-20T15:19:10;15.80;;;14.63;;
47239;SDS011;32978;53.586;10.052;2022-11-20T15:24:11;18.70;;;17.05;;
47239;SDS011;32978;53.586;10.052;2022-11-20T15:29:08;17.08;;;15.50;;
47239;SDS011;32978;53.586;10.052;2022-11-20T15:34:08;17.83;;;16.08;;
47239;SDS011;32978;53.586;10.052;2022-11-20T15:39:05;17.45;;;16.05;;
47239;SDS011;32978;53.586;10.052;2022-11-20T15:44:03;16.15;;;14.93;;
47239;SDS011;32978;53.586;10.052;2022-11-20T15:49:00;16.05;;;14.85;;
47239;SDS011;32978;53.586;10.052;2022-11-20T15:53:57;15.90;;;14.75;;
47239;SDS011;32978;53.586;10.052;2022-11-20T15:58:53;15.27;;;14.18;;
47239;SDS011;32978;53.586;10.052;2022-11-20T16:03:49;14.93;;;13.88;;
47239;SDS011;32978;53.586;10.052;2022-11-20T16:08:45;15.18;;;14.02;;
47239;SDS011;32978;53.586;10.052;2022-11-20T16:13:42;15.50;;;14.15;;
47239;SDS011;32978;53.586;10.052;2022-11-20T16:18:57;15.68;;;14.48;;
47239;SDS011;32978;53.586;10.052;2022-11-20T16:23:53;14.77;;;13.55;;
47239;SDS011;32978;53.586;10.052;2022-11-20T16:28:49;15.13;;;14.13;;
47239;SDS011;32978;53.586;10.052;2022-11-20T16:33:52;15.18;;;14.07;;
47239;SDS011;32978;53.586;10.052;2022-11-20T16:38:56;16.48;;;15.27;;
47239;SDS011;32978;53.586;10.052;2022-11-20T16:43:53;15.38;;;14.18;;
47239;SDS011;32978;53.586;10.052;2022-11-20T16:48:59;15.73;;;14.52;;
47239;SDS011;32978;53.586;10.052;2022-11-20T16:53:56;16.60;;;15.25;;
47239;SDS011;32978;53.586;10.052;2022-11-20T16:58:56;16.70;;;15.50;;
47239;SDS011;32978;53.586;10.052;2022-11-20T17:03:53;18.48;;;17.10;;
47239;SDS011;32978;53.586;10.052;2022-11-20T17:08:50;18.55;;;16.95;;
47239;SDS011;32978;53.586;10.052;2022-11-20T17:13:46;18.13;;;16.77;;
47239;SDS011;32978;53.586;10.052;2022-11-20T17:18:43;17.77;;;16.58;;
47239;SDS011;32978;53.586;10.052;2022-11-20T17:23:40;19.25;;;17.88;;
47239;SDS011;32978;53.586;10.052;2022-11-20T17:28:37;19.02;;;17.73;;
47239;SDS011;32978;53.586;10.052;2022-11-20T17:33:37;18.92;;;17.73;;
47239;SDS011;32978;53.586;10.052;2022-11-20T17:38:34;19.67;;;18.33;;
47239;SDS011;32978;53.586;10.052;2022-11-20T17:43:30;19.98;;;18.58;;
47239;SDS011;32978;53.586;10.052;2022-11-20T17:48:31;19.50;;;18.20;;
47239;SDS011;32978;53.586;10.052;2022-11-20T17:53:28;20.30;;;18.90;;
47239;SDS011;32978;53.586;10.052;2022-11-20T17:58:27;21.15;;;19.38;;
47239;SDS011;32978;53.586;10.052;2022-11-20T18:03:24;20.92;;;19.50;;
47239;SDS011;32978;53.586;10.052;2022-11-20T18:08:20;22.73;;;20.80;;
47239;SDS011;32978;53.586;10.052;2022-11-20T18:13:16;21.45;;;19.92;;
47239;SDS011;32978;53.586;10.052;2022-11-20T18:18:12;22.52;;;20.67;;
47239;SDS011;32978;53.586;10.052;2022-11-20T18:23:09;22.80;;;21.10;;
47239;SDS011;32978;53.586;10.052;2022-11-20T18:28:06;24.60;;;22.40;;
47239;SDS011;32978;53.586;10.052;2022-11-20T18:33:03;23.77;;;21.80;;
47239;SDS011;32978;53.586;10.052;2022-11-20T18:37:59;24.77;;;22.67;;
47239;SDS011;32978;53.586;10.052;2022-11-20T18:42:55;25.90;;;23.80;;
47239;SDS011;32978;53.586;10.052;2022-11-20T18:48:10;24.40;;;22.70;;
47239;SDS011;32978;53.586;10.052;2022-11-20T18:53:06;23.70;;;22.00;;
47239;SDS011;32978;53.586;10.052;2022-11-20T18:58:03;23.00;;;21.20;;
47239;SDS011;32978;53.586;10.052;2022-11-20T19:02:59;24.90;;;22.10;;
47239;SDS011;32978;53.586;10.052;2022-11-20T19:07:55;23.58;;;21.67;;
47239;SDS011;32978;53.586;10.052;2022-11-20T19:12:51;27.38;;;25.00;;
47239;SDS011;32978;53.586;10.052;2022-11-20T19:17:48;26.92;;;24.60;;
47239;SDS011;32978;53.586;10.052;2022-11-20T19:22:44;27.83;;;25.38;;
47239;SDS011;32978;53.586;10.052;2022-11-20T19:27:45;30.60;;;27.60;;
47239;SDS011;32978;53.586;10.052;2022-11-20T19:32:41;31.10;;;28.08;;
47239;SDS011;32978;53.586;10.052;2022-11-20T19:37:37;31.48;;;28.58;;
47239;SDS011;32978;53.586;10.052;2022-11-20T19:42:33;31.50;;;28.55;;
47239;SDS011;32978;53.586;10.052;2022-11-20T19:47:30;34.13;;;30.88;;
47239;SDS011;32978;53.586;10.052;2022-11-20T19:52:46;32.95;;;30.05;;
47239;SDS011;32978;53.586;10.052;2022-11-20T19:57:42;35.45;;;32.17;;
47239;SDS011;32978;53.586;10.052;2022-11-20T20:02:39;35.35;;;32.17;;
47239;SDS011;32978;53.586;10.052;2022-11-20T20:07:35;35.70;;;32.20;;
47239;SDS011;32978;53.586;10.052;2022-11-20T20:12:31;35.05;;;31.95;;
47239;SDS011;32978;53.586;10.052;2022-11-20T20:17:28;36.45;;;33.10;;
47239;SDS011;32978;53.586;10.052;2022-11-20T20:22:24;35.15;;;32.13;;
47239;SDS011;32978;53.586;10.052;2022-11-20T20:27:20;35.17;;;32.22;;
47239;SDS011;32978;53.586;10.052;2022-11-20T20:32:16;35.13;;;32.22;;
47239;SDS011;32978;53.586;10.052;2022-11-20T20:37:12;35.78;;;32.28;;
47239;SDS011;32978;53.586;10.052;2022-11-20T20:42:09;35.33;;;31.95;;
47239;SDS011;32978;53.586;10.052;2022-11-20T20:47:05;35.10;;;32.03;;
47239;SDS011;32978;53.586;10.052;2022-11-20T20:52:02;37.90;;;34.45;;
47239;SDS011;32978;53.586;10.052;2022-11-20T20:56:58;41.67;;;37.92;;
47239;SDS011;32978;53.586;10.052;2022-11-20T21:01:54;42.90;;;39.10;;
47239;SDS011;32978;53.586;10.052;2022-11-20T21:06:51;44.97;;;41.25;;
47239;SDS011;32978;53.586;10.052;2022-11-20T21:11:47;44.50;;;40.58;;
47239;SDS011;32978;53.586;10.052;2022-11-20T21:16:43;49.00;;;44.90;;
47239;SDS011;32978;53.586;10.052;2022-11-20T21:21:40;53.40;;;48.90;;
47239;SDS011;32978;53.586;10.052;2022-11-20T21:26:54;52.08;;;47.75;;
47239;SDS011;32978;53.586;10.052;2022-11-20T21:31:51;52.55;;;48.42;;
47239;SDS011;32978;53.586;10.052;2022-11-20T21:36:48;54.72;;;50.60;;
47239;SDS011;32978;53.586;10.052;2022-11-20T21:41:44;55.83;;;51.60;;
47239;SDS011;32978;53.586;10.052;2022-11-20T21:46:41;57.28;;;52.42;;
47239;SDS011;32978;53.586;10.052;2022-11-20T21:51:38;64.22;;;59.33;;
47239;SDS011;32978;53.586;10.052;2022-11-20T21:56:34;65.45;;;60.65;;
47239;SDS011;32978;53.586;10.052;2022-11-20T22:01:30;67.32;;;62.50;;
47239;SDS011;32978;53.586;10.052;2022-11-20T22:06:31;66.13;;;61.42;;
47239;SDS011;32978;53.586;10.052;2022-11-20T22:11:27;66.50;;;61.35;;
47239;SDS011;32978;53.586;10.052;2022-11-20T22:16:24;68.47;;;63.20;;
47239;SDS011;32978;53.586;10.052;2022-11-20T22:21:21;64.03;;;59.33;;
47239;SDS011;32978;53.586;10.052;2022-11-20T22:26:18;64.68;;;59.78;;
47239;SDS011;32978;53.586;10.052;2022-11-20T22:31:15;68.25;;;63.22;;
47239;SDS011;32978;53.586;10.052;2022-11-20T22:36:12;65.75;;;60.78;;
47239;SDS011;32978;53.586;10.052;2022-11-20T22:41:10;64.55;;;59.90;;
47239;SDS011;32978;53.586;10.052;2022-11-20T22:46:10;65.10;;;60.22;;
47239;SDS011;32978;53.586;10.052;2022-11-20T22:51:08;66.45;;;61.63;;
47239;SDS011;32978;53.586;10.052;2022-11-20T22:56:04;75.63;;;70.05;;
47239;SDS011;32978;53.586;10.052;2022-11-20T23:01:11;78.78;;;73.50;;
47239;SDS011;32978;53.586;10.052;2022-11-20T23:06:08;77.53;;;72.13;;
47239;SDS011;32978;53.586;10.052;2022-11-20T23:11:06;75.10;;;69.43;;
47239;SDS011;32978;53.586;10.052;2022-11-20T23:16:03;74.38;;;69.03;;
47239;SDS011;32978;53.586;10.052;2022-11-20T23:21:06;73.43;;;68.22;;
47239;SDS011;32978;53.586;10.052;2022-11-20T23:26:07;76.10;;;70.65;;
47239;SDS011;32978;53.586;10.052;2022-11-20T23:31:04;70.63;;;65.78;;
47239;SDS011;32978;53.586;10.052;2022-11-20T23:36:00;72.32;;;67.03;;
47239;SDS011;32978;53.586;10.052;2022-11-20T23:40:56;75.38;;;69.75;;
47239;SDS011;32978;53.586;10.052;2022-11-20T23:45:54;75.13;;;69.88;;
47239;SDS011;32978;53.586;10.052;2022-11-20T23:50:50;72.95;;;67.95;;
47239;SDS011;32978;53.586;10.052;2022-11-20T23:55:47;74.75;;;69.45;;
